Time,TemperatureF,DewpointF,PressureIn,WindDirection,WindDirectionDegrees,WindSpeedMPH,WindSpeedGustMPH,Humidity,HourlyPrecipIn,Conditions,Clouds,dailyrainin,SoftwareType,DateUTC
2013-10-15 00:01:00,59.5,57.5,30.19,NNE,26,0.0,0.0,93,0.00,,,0.01,Wunderground v.1.13,2013-10-15 04:01:00,
2013-10-15 00:02:00,59.5,57.5,30.19,NNE,26,0.0,0.0,93,0.00,,,0.01,Wunderground v.1.13,2013-10-15 04:02:00,
2013-10-15 00:07:00,59.3,57.3,30.19,NNE,26,0.0,0.0,93,0.00,,,0.01,Wunderground v.1.13,2013-10-15 04:07:00,
2013-10-15 00:12:00,59.1,57.1,30.19,NNE,26,0.0,0.0,93,0.00,,,0.01,Wunderground v.1.13,2013-10-15 04:12:00,
2013-10-15 00:17:00,58.9,56.9,30.19,NNE,26,0.0,0.0,93,0.00,,,0.01,Wunderground v.1.13,2013-10-15 04:17:00,
2013-10-15 00:22:00,58.6,56.6,30.19,NNE,26,0.0,0.0,93,0.00,,,0.01,Wunderground v.1.13,2013-10-15 04:22:00,
2013-10-15 00:27:00,58.3,56.3,30.19,NNE,26,0.0,0.0,93,0.00,,,0.01,Wunderground v.1.13,2013-10-15 04:27:00,
2013-10-15 00:32:00,58.1,55.8,30.19,NNE,26,0.0,0.0,92,0.00,,,0.01,Wunderground v.1.13,2013-10-15 04:32:00,
2013-10-15 00:37:00,57.7,55.4,30.18,NNE,26,0.0,0.0,92,0.00,,,0.01,Wunderground v.1.13,2013-10-15 04:37:00,
2013-10-15 00:42:00,57.5,55.2,30.19,NNE,26,0.0,0.0,92,0.00,,,0.01,Wunderground v.1.13,2013-10-15 04:42:00,
2013-10-15 00:47:00,57.2,54.9,30.19,NNE,26,0.0,0.0,92,0.00,,,0.01,Wunderground v.1.13,2013-10-15 04:47:00,
2013-10-15 00:52:00,57.0,54.7,30.19,NNE,26,0.0,0.0,92,0.00,,,0.01,Wunderground v.1.13,2013-10-15 04:52:00,
2013-10-15 00:57:00,56.7,54.4,30.19,NNE,26,0.0,0.0,92,0.00,,,0.01,Wunderground v.1.13,2013-10-15 04:57:00,
2013-10-15 01:03:00,56.4,54.1,30.19,NNE,26,0.0,0.0,92,0.00,,,0.01,Wunderground v.1.13,2013-10-15 05:03:00,
2013-10-15 01:09:00,56.2,53.9,30.19,NNE,26,0.0,0.0,92,0.00,,,0.01,Wunderground v.1.13,2013-10-15 05:09:00,
2013-10-15 01:15:00,55.9,53.6,30.18,NNE,26,0.0,0.0,92,0.00,,,0.01,Wunderground v.1.13,2013-10-15 05:15:00,
2013-10-15 01:20:00,55.6,53.3,30.18,NNE,26,0.0,0.0,92,0.00,,,0.01,Wunderground v.1.13,2013-10-15 05:20:00,
2013-10-15 01:26:00,55.3,53.0,30.18,NNE,26,0.0,0.0,92,0.00,,,0.01,Wunderground v.1.13,2013-10-15 05:26:00,
2013-10-15 01:32:00,55.2,52.9,30.18,NNE,26,0.0,0.0,92,0.00,,,0.01,Wunderground v.1.13,2013-10-15 05:32:00,
2013-10-15 01:38:00,55.0,53.0,30.18,NNE,26,0.0,0.0,93,0.00,,,0.01,Wunderground v.1.13,2013-10-15 05:38:00,
2013-10-15 01:43:00,54.8,52.5,30.18,NNE,26,0.0,0.0,92,0.00,,,0.01,Wunderground v.1.13,2013-10-15 05:43:00,
2013-10-15 01:49:00,54.6,52.6,30.18,NNE,26,0.0,0.0,93,0.00,,,0.01,Wunderground v.1.13,2013-10-15 05:49:00,
2013-10-15 01:55:00,54.4,52.4,30.18,NNE,26,0.0,0.0,93,0.00,,,0.01,Wunderground v.1.13,2013-10-15 05:55:00,
2013-10-15 02:01:00,54.2,52.2,30.18,NNE,26,0.0,0.0,93,0.00,,,0.01,Wunderground v.1.13,2013-10-15 06:01:00,
2013-10-15 02:06:00,54.0,52.0,30.18,NNE,26,0.0,0.0,93,0.00,,,0.01,Wunderground v.1.13,2013-10-15 06:06:00,
2013-10-15 02:12:00,53.8,51.8,30.18,NNE,26,0.0,0.0,93,0.00,,,0.01,Wunderground v.1.13,2013-10-15 06:12:00,
2013-10-15 02:18:00,53.6,51.6,30.18,NNE,26,0.0,0.0,93,0.00,,,0.01,Wunderground v.1.13,2013-10-15 06:18:00,
2013-10-15 02:24:00,53.3,51.3,30.17,NNE,26,0.0,0.0,93,0.00,,,0.01,Wunderground v.1.13,2013-10-15 06:24:00,
2013-10-15 02:30:00,53.2,51.2,30.17,NNE,26,0.0,0.0,93,0.00,,,0.01,Wunderground v.1.13,2013-10-15 06:30:00,
2013-10-15 02:35:00,53.1,51.1,30.17,NNE,26,0.0,0.0,93,0.00,,,0.01,Wunderground v.1.13,2013-10-15 06:35:00,
2013-10-15 02:41:00,52.9,50.9,30.17,NNE,26,0.0,0.0,93,0.00,,,0.01,Wunderground v.1.13,2013-10-15 06:41:00,
2013-10-15 02:47:00,52.8,50.8,30.17,NNE,26,0.0,0.0,93,0.00,,,0.01,Wunderground v.1.13,2013-10-15 06:47:00,
2013-10-15 02:52:00,52.6,50.6,30.16,NNE,26,0.0,0.0,93,0.00,,,0.00,Wunderground v.1.13,2013-10-15 06:52:00,
2013-10-15 02:57:00,52.5,50.5,30.16,NNE,26,0.0,0.0,93,0.00,,,0.00,Wunderground v.1.13,2013-10-15 06:57:00,
2013-10-15 03:02:00,52.4,50.4,30.16,NNE,26,0.0,0.0,93,0.00,,,0.00,Wunderground v.1.13,2013-10-15 07:02:00,
2013-10-15 03:07:00,52.3,50.6,30.16,NNE,26,0.0,0.0,94,0.00,,,0.00,Wunderground v.1.13,2013-10-15 07:07:00,
2013-10-15 03:12:00,52.3,50.6,30.16,NNE,26,0.0,0.0,94,0.00,,,0.00,Wunderground v.1.13,2013-10-15 07:12:00,
2013-10-15 03:17:00,52.3,50.6,30.16,NNE,26,0.0,0.0,94,0.00,,,0.00,Wunderground v.1.13,2013-10-15 07:17:00,
2013-10-15 03:22:00,52.3,50.6,30.16,NNE,26,0.0,0.0,94,0.00,,,0.00,Wunderground v.1.13,2013-10-15 07:22:00,
2013-10-15 03:27:00,52.3,50.6,30.16,NNE,26,0.0,0.0,94,0.00,,,0.00,Wunderground v.1.13,2013-10-15 07:27:00,
2013-10-15 03:32:00,52.3,50.6,30.16,NNE,26,0.0,0.0,94,0.00,,,0.00,Wunderground v.1.13,2013-10-15 07:32:00,
2013-10-15 03:37:00,52.3,50.9,30.15,NNE,26,0.0,0.0,95,0.00,,,0.00,Wunderground v.1.13,2013-10-15 07:37:00,
2013-10-15 03:42:00,52.3,50.9,30.15,NNE,26,0.0,0.0,95,0.00,,,0.00,Wunderground v.1.13,2013-10-15 07:42:00,
2013-10-15 03:47:00,52.3,50.6,30.15,NNE,26,0.0,0.0,94,0.00,,,0.00,Wunderground v.1.13,2013-10-15 07:47:00,
2013-10-15 03:52:00,52.2,50.5,30.15,NNE,26,0.0,0.0,94,0.00,,,0.00,Wunderground v.1.13,2013-10-15 07:52:00,
2013-10-15 03:57:00,52.2,50.8,30.15,NNE,26,0.0,0.0,95,0.00,,,0.00,Wunderground v.1.13,2013-10-15 07:57:00,
2013-10-15 04:02:00,52.2,50.8,30.14,NNE,26,0.0,0.0,95,0.00,,,0.00,Wunderground v.1.13,2013-10-15 08:02:00,
2013-10-15 04:07:00,52.1,50.7,30.14,NNE,26,0.0,0.0,95,0.00,,,0.00,Wunderground v.1.13,2013-10-15 08:07:00,
2013-10-15 04:12:00,52.1,50.7,30.14,NNE,26,0.0,0.0,95,0.00,,,0.00,Wunderground v.1.13,2013-10-15 08:12:00,
2013-10-15 04:17:00,52.0,50.6,30.14,NNE,26,0.0,0.0,95,0.00,,,0.00,Wunderground v.1.13,2013-10-15 08:17:00,
2013-10-15 04:22:00,51.9,50.5,30.14,NNE,26,0.0,0.0,95,0.00,,,0.00,Wunderground v.1.13,2013-10-15 08:22:00,
2013-10-15 04:27:00,51.9,50.5,30.14,NNE,26,0.0,0.0,95,0.00,,,0.00,Wunderground v.1.13,2013-10-15 08:27:00,
2013-10-15 04:32:00,51.8,50.4,30.14,NNE,26,0.0,0.0,95,0.00,,,0.00,Wunderground v.1.13,2013-10-15 08:32:00,
2013-10-15 04:37:00,51.8,50.4,30.14,NNE,26,0.0,0.0,95,0.00,,,0.00,Wunderground v.1.13,2013-10-15 08:37:00,
2013-10-15 04:42:00,51.7,50.3,30.14,NNE,26,0.0,0.0,95,0.00,,,0.00,Wunderground v.1.13,2013-10-15 08:42:00,
2013-10-15 04:47:00,51.5,50.1,30.14,NNE,26,0.0,0.0,95,0.00,,,0.00,Wunderground v.1.13,2013-10-15 08:47:00,
2013-10-15 04:50:00,51.5,50.1,30.14,NNE,26,0.0,0.0,95,0.00,,,0.00,Wunderground v.1.13,2013-10-15 08:50:00,
2013-10-15 04:55:00,51.4,50.0,30.14,NNE,26,0.0,0.0,95,0.00,,,0.00,Wunderground v.1.13,2013-10-15 08:55:00,
2013-10-15 05:00:00,51.3,49.9,30.14,NNE,26,0.0,0.0,95,0.00,,,0.00,Wunderground v.1.13,2013-10-15 09:00:00,
2013-10-15 05:05:00,51.1,49.7,30.14,NNE,26,0.0,0.0,95,0.00,,,0.00,Wunderground v.1.13,2013-10-15 09:05:00,
2013-10-15 05:10:00,51.0,49.6,30.14,NNE,26,0.0,0.0,95,0.00,,,0.00,Wunderground v.1.13,2013-10-15 09:10:00,
2013-10-15 05:15:00,50.9,49.5,30.14,NNE,26,0.0,0.0,95,0.00,,,0.00,Wunderground v.1.13,2013-10-15 09:15:00,
2013-10-15 05:20:00,50.8,49.4,30.14,NNE,26,0.0,0.0,95,0.00,,,0.00,Wunderground v.1.13,2013-10-15 09:20:00,
2013-10-15 05:25:00,50.7,49.3,30.14,NNE,26,0.0,0.0,95,0.00,,,0.00,Wunderground v.1.13,2013-10-15 09:25:00,
2013-10-15 05:30:00,50.6,49.2,30.14,NNE,26,0.0,0.0,95,0.00,,,0.00,Wunderground v.1.13,2013-10-15 09:30:00,
2013-10-15 05:35:00,50.6,49.2,30.14,NNE,26,0.0,0.0,95,0.00,,,0.00,Wunderground v.1.13,2013-10-15 09:35:00,
2013-10-15 05:40:00,50.5,49.1,30.15,NNE,26,0.0,0.0,95,0.00,,,0.00,Wunderground v.1.13,2013-10-15 09:40:00,
2013-10-15 05:45:00,50.5,49.1,30.14,NNE,26,0.0,0.0,95,0.00,,,0.00,Wunderground v.1.13,2013-10-15 09:45:00,
2013-10-15 05:50:00,50.4,49.0,30.14,NNE,26,0.0,0.0,95,0.00,,,0.00,Wunderground v.1.13,2013-10-15 09:50:00,
2013-10-15 05:55:00,50.3,48.9,30.15,NNE,26,0.0,0.0,95,0.00,,,0.00,Wunderground v.1.13,2013-10-15 09:55:00,
2013-10-15 06:00:00,50.3,48.9,30.15,NNE,26,0.0,0.0,95,0.00,,,0.00,Wunderground v.1.13,2013-10-15 10:00:00,
2013-10-15 06:05:00,50.2,48.8,30.15,NNE,26,0.0,0.0,95,0.00,,,0.00,Wunderground v.1.13,2013-10-15 10:05:00,
2013-10-15 06:10:00,50.1,48.7,30.14,NNE,26,0.0,0.0,95,0.00,,,0.00,Wunderground v.1.13,2013-10-15 10:10:00,
2013-10-15 06:15:00,49.9,48.5,30.14,NNE,26,0.0,0.0,95,0.00,,,0.00,Wunderground v.1.13,2013-10-15 10:15:00,
2013-10-15 06:20:00,49.8,48.4,30.14,NNE,26,0.0,0.0,95,0.00,,,0.00,Wunderground v.1.13,2013-10-15 10:20:00,
2013-10-15 06:25:00,49.7,48.3,30.14,NNE,26,0.0,0.0,95,0.00,,,0.00,Wunderground v.1.13,2013-10-15 10:25:00,
2013-10-15 06:30:00,49.6,48.2,30.14,NNE,26,0.0,0.0,95,0.00,,,0.00,Wunderground v.1.13,2013-10-15 10:30:00,
2013-10-15 06:35:00,49.5,48.1,30.14,NNE,26,0.0,0.0,95,0.00,,,0.00,Wunderground v.1.13,2013-10-15 10:35:00,
2013-10-15 06:40:00,49.4,48.0,30.15,NNE,26,0.0,0.0,95,0.00,,,0.00,Wunderground v.1.13,2013-10-15 10:40:00,
2013-10-15 06:45:00,49.3,47.9,30.15,NNE,26,0.0,0.0,95,0.00,,,0.00,Wunderground v.1.13,2013-10-15 10:45:00,
2013-10-15 06:50:00,49.2,47.8,30.15,NNE,26,0.0,0.0,95,0.00,,,0.00,Wunderground v.1.13,2013-10-15 10:50:00,
2013-10-15 06:55:00,49.0,47.6,30.15,NNE,26,0.0,0.0,95,0.00,,,0.00,Wunderground v.1.13,2013-10-15 10:55:00,
2013-10-15 07:00:00,48.9,47.5,30.15,NNE,26,0.0,0.0,95,0.00,,,0.00,Wunderground v.1.13,2013-10-15 11:00:00,
2013-10-15 07:05:00,48.8,47.4,30.15,NNE,26,0.0,0.0,95,0.00,,,0.00,Wunderground v.1.13,2013-10-15 11:05:00,
2013-10-15 07:10:00,48.7,47.3,30.15,NNE,26,0.0,0.0,95,0.00,,,0.00,Wunderground v.1.13,2013-10-15 11:10:00,
2013-10-15 07:15:00,48.6,47.2,30.15,NNE,26,0.0,0.0,95,0.00,,,0.00,Wunderground v.1.13,2013-10-15 11:15:00,
2013-10-15 07:20:00,48.5,47.1,30.15,NNE,26,0.0,0.0,95,0.00,,,0.00,Wunderground v.1.13,2013-10-15 11:20:00,
2013-10-15 07:25:00,48.3,46.9,30.15,NNE,26,0.0,0.0,95,0.00,,,0.00,Wunderground v.1.13,2013-10-15 11:25:00,
2013-10-15 07:30:00,48.2,46.8,30.15,NNE,26,0.0,0.0,95,0.00,,,0.00,Wunderground v.1.13,2013-10-15 11:30:00,
2013-10-15 07:35:00,48.1,46.7,30.15,NNE,26,0.0,0.0,95,0.00,,,0.00,Wunderground v.1.13,2013-10-15 11:35:00,
2013-10-15 07:40:00,48.0,46.6,30.15,NNE,26,0.0,0.0,95,0.00,,,0.00,Wunderground v.1.13,2013-10-15 11:40:00,
2013-10-15 07:45:00,47.9,46.5,30.16,NNE,26,0.0,0.0,95,0.00,,,0.00,Wunderground v.1.13,2013-10-15 11:45:00,
2013-10-15 07:50:00,47.8,46.7,30.16,NNE,26,0.0,0.0,96,0.00,,,0.00,Wunderground v.1.13,2013-10-15 11:50:00,
2013-10-15 07:55:00,47.8,46.4,30.16,NNE,26,0.0,0.0,95,0.00,,,0.00,Wunderground v.1.13,2013-10-15 11:55:00,
2013-10-15 08:00:00,47.8,46.7,30.16,NNE,26,0.0,0.0,96,0.00,,,0.00,Wunderground v.1.13,2013-10-15 12:00:00,
2013-10-15 08:05:00,47.9,46.8,30.16,NNE,26,0.0,0.0,96,0.00,,,0.00,Wunderground v.1.13,2013-10-15 12:05:00,
2013-10-15 08:10:00,47.9,46.8,30.16,NNE,26,0.0,0.0,96,0.00,,,0.00,Wunderground v.1.13,2013-10-15 12:10:00,
2013-10-15 08:15:00,48.1,47.0,30.16,NNE,26,0.0,0.0,96,0.00,,,0.00,Wunderground v.1.13,2013-10-15 12:15:00,
2013-10-15 08:20:00,48.1,47.0,30.16,NNE,26,0.0,0.0,96,0.00,,,0.00,Wunderground v.1.13,2013-10-15 12:20:00,
2013-10-15 08:25:00,48.3,47.2,30.16,NNE,26,0.0,0.0,96,0.00,,,0.00,Wunderground v.1.13,2013-10-15 12:25:00,
2013-10-15 08:30:00,48.5,47.4,30.16,NNE,26,0.0,0.0,96,0.00,,,0.00,Wunderground v.1.13,2013-10-15 12:30:00,
2013-10-15 08:35:00,48.8,47.7,30.16,NNE,26,0.0,0.0,96,0.00,,,0.00,Wunderground v.1.13,2013-10-15 12:35:00,
2013-10-15 08:40:00,49.3,48.2,30.16,NNE,26,0.0,0.0,96,0.00,,,0.00,Wunderground v.1.13,2013-10-15 12:40:00,
2013-10-15 08:45:00,49.7,48.9,30.16,NNE,26,0.0,0.0,97,0.00,,,0.00,Wunderground v.1.13,2013-10-15 12:45:00,
2013-10-15 08:50:00,50.3,49.5,30.16,NNE,26,0.0,0.0,97,0.00,,,0.00,Wunderground v.1.13,2013-10-15 12:50:00,
2013-10-15 08:55:00,50.8,50.0,30.15,NNE,26,0.0,0.0,97,0.00,,,0.00,Wunderground v.1.13,2013-10-15 12:55:00,
2013-10-15 09:00:00,51.7,50.9,30.15,NNE,26,0.0,0.0,97,0.00,,,0.00,Wunderground v.1.13,2013-10-15 13:00:00,
2013-10-15 09:05:00,52.9,52.4,30.15,NNE,26,0.0,0.0,98,0.00,,,0.00,Wunderground v.1.13,2013-10-15 13:05:00,
2013-10-15 09:10:00,53.5,52.7,30.15,NNE,26,0.0,0.0,97,0.00,,,0.00,Wunderground v.1.13,2013-10-15 13:10:00,
2013-10-15 09:15:00,54.0,53.2,30.15,NNE,26,0.0,0.0,97,0.00,,,0.00,Wunderground v.1.13,2013-10-15 13:15:00,
2013-10-15 09:20:00,54.6,54.6,30.15,NNE,26,0.0,0.0,100,0.00,,,0.00,Wunderground v.1.13,2013-10-15 13:20:00,
2013-10-15 09:25:00,55.1,54.3,30.15,NNE,26,0.0,0.0,97,0.00,,,0.00,Wunderground v.1.13,2013-10-15 13:25:00,
2013-10-15 09:30:00,55.5,54.7,30.15,NNE,26,0.0,0.0,97,0.00,,,0.00,Wunderground v.1.13,2013-10-15 13:30:00,
2013-10-15 09:35:00,56.0,55.2,30.15,NNE,26,0.0,0.0,97,0.00,,,0.00,Wunderground v.1.13,2013-10-15 13:35:00,
2013-10-15 09:40:00,56.8,56.0,30.15,NNE,26,0.0,0.0,97,0.00,,,0.00,Wunderground v.1.13,2013-10-15 13:40:00,
2013-10-15 09:45:00,57.5,56.7,30.15,NNE,26,0.0,0.0,97,0.00,,,0.00,Wunderground v.1.13,2013-10-15 13:45:00,
2013-10-15 09:51:00,58.4,57.3,30.15,NNE,26,0.0,0.0,96,0.00,,,0.00,Wunderground v.1.13,2013-10-15 13:51:00,
2013-10-15 09:56:00,59.3,57.9,30.15,NNE,26,0.0,0.0,95,0.00,,,0.00,Wunderground v.1.13,2013-10-15 13:56:00,
2013-10-15 10:01:00,59.9,57.9,30.15,NNE,26,0.0,0.0,93,0.00,,,0.00,Wunderground v.1.13,2013-10-15 14:01:00,
2013-10-15 10:06:00,60.7,58.1,30.15,NNE,26,0.0,0.0,91,0.00,,,0.00,Wunderground v.1.13,2013-10-15 14:06:00,
2013-10-15 10:11:00,61.3,57.4,30.15,NNE,17,1.0,4.0,87,0.00,,,0.00,Wunderground v.1.13,2013-10-15 14:11:00,
2013-10-15 10:16:00,62.0,57.8,30.15,NNE,17,0.0,1.0,86,0.00,,,0.00,Wunderground v.1.13,2013-10-15 14:16:00,
2013-10-15 10:21:00,62.6,57.7,30.14,NNE,17,0.0,1.0,84,0.00,,,0.00,Wunderground v.1.13,2013-10-15 14:21:00,
2013-10-15 10:26:00,63.0,57.1,30.14,NNE,17,0.0,0.0,81,0.00,,,0.00,Wunderground v.1.13,2013-10-15 14:26:00,
2013-10-15 10:31:00,63.5,57.6,30.14,NNE,17,2.0,2.0,81,0.00,,,0.00,Wunderground v.1.13,2013-10-15 14:31:00,
2013-10-15 10:36:00,64.1,57.5,30.15,ENE,71,0.0,5.0,79,0.00,,,0.00,Wunderground v.1.13,2013-10-15 14:36:00,
2013-10-15 10:41:00,64.1,57.1,30.14,ESE,107,7.0,11.0,78,0.00,,,0.00,Wunderground v.1.13,2013-10-15 14:41:00,
2013-10-15 10:46:00,64.6,57.6,30.14,ESE,107,1.0,6.0,78,0.00,,,0.00,Wunderground v.1.13,2013-10-15 14:46:00,
2013-10-15 10:51:00,64.9,57.5,30.14,SE,144,4.0,6.0,77,0.00,,,0.00,Wunderground v.1.13,2013-10-15 14:51:00,
2013-10-15 10:56:00,65.3,57.9,30.14,SSE,149,1.0,5.0,77,0.00,,,0.00,Wunderground v.1.13,2013-10-15 14:56:00,
2013-10-15 11:01:00,65.2,57.8,30.14,SE,125,1.0,3.0,77,0.00,,,0.00,Wunderground v.1.13,2013-10-15 15:01:00,
2013-10-15 11:06:00,65.2,57.4,30.14,SE,125,2.0,5.0,76,0.00,,,0.00,Wunderground v.1.13,2013-10-15 15:06:00,
2013-10-15 11:11:00,65.0,57.6,30.14,SE,124,2.0,5.0,77,0.00,,,0.00,Wunderground v.1.13,2013-10-15 15:11:00,
2013-10-15 11:16:00,65.0,57.2,30.13,ESE,122,4.0,4.0,76,0.00,,,0.00,Wunderground v.1.13,2013-10-15 15:16:00,
2013-10-15 11:21:00,65.2,57.1,30.13,ESE,120,0.0,2.0,75,0.00,,,0.00,Wunderground v.1.13,2013-10-15 15:21:00,
2013-10-15 11:26:00,65.3,57.5,30.13,ESE,120,2.0,4.0,76,0.00,,,0.00,Wunderground v.1.13,2013-10-15 15:26:00,
2013-10-15 11:31:00,65.4,57.3,30.13,ESE,121,0.0,2.0,75,0.00,,,0.00,Wunderground v.1.13,2013-10-15 15:31:00,
2013-10-15 11:36:00,65.3,57.2,30.13,ESE,121,0.0,2.0,75,0.00,,,0.00,Wunderground v.1.13,2013-10-15 15:36:00,
2013-10-15 11:41:00,65.2,57.1,30.13,ESE,123,0.0,1.0,75,0.00,,,0.00,Wunderground v.1.13,2013-10-15 15:41:00,
2013-10-15 11:46:00,65.3,57.2,30.12,ESE,123,0.0,2.0,75,0.00,,,0.00,Wunderground v.1.13,2013-10-15 15:46:00,
2013-10-15 11:51:00,65.4,56.9,30.12,ESE,123,0.0,0.0,74,0.00,,,0.00,Wunderground v.1.13,2013-10-15 15:51:00,
2013-10-15 11:56:00,65.8,58.0,30.12,ESE,123,4.0,5.0,76,0.00,,,0.00,Wunderground v.1.13,2013-10-15 15:56:00,
2013-10-15 12:01:00,66.2,58.0,30.12,SE,145,0.0,5.0,75,0.00,,,0.00,Wunderground v.1.13,2013-10-15 16:01:00,
2013-10-15 12:06:00,66.5,57.6,30.12,SSE,155,0.0,2.0,73,0.00,,,0.00,Wunderground v.1.13,2013-10-15 16:06:00,
2013-10-15 12:11:00,66.8,57.5,30.11,SSE,154,1.0,5.0,72,0.00,,,0.00,Wunderground v.1.13,2013-10-15 16:11:00,
2013-10-15 12:16:00,67.0,57.7,30.11,SSE,154,0.0,1.0,72,0.00,,,0.00,Wunderground v.1.13,2013-10-15 16:16:00,
2013-10-15 12:21:00,67.4,58.1,30.11,SSE,154,0.0,1.0,72,0.00,,,0.00,Wunderground v.1.13,2013-10-15 16:21:00,
2013-10-15 12:26:00,67.9,58.1,30.11,SSE,153,2.0,4.0,71,0.00,,,0.00,Wunderground v.1.13,2013-10-15 16:26:00,
2013-10-15 12:31:00,68.3,58.5,30.11,East,98,7.0,7.0,71,0.00,,,0.00,Wunderground v.1.13,2013-10-15 16:31:00,
2013-10-15 12:36:00,68.5,58.3,30.11,East,96,0.0,5.0,70,0.00,,,0.00,Wunderground v.1.13,2013-10-15 16:36:00,
2013-10-15 12:41:00,68.6,58.4,30.11,ESE,112,0.0,7.0,70,0.00,,,0.00,Wunderground v.1.13,2013-10-15 16:41:00,
2013-10-15 12:46:00,68.8,58.6,30.10,ESE,109,1.0,5.0,70,0.00,,,0.00,Wunderground v.1.13,2013-10-15 16:46:00,
2013-10-15 12:51:00,69.0,58.0,30.10,ESE,110,0.0,2.0,68,0.00,,,0.00,Wunderground v.1.13,2013-10-15 16:51:00,
2013-10-15 12:56:00,69.2,58.2,30.10,ESE,110,0.0,5.0,68,0.00,,,0.00,Wunderground v.1.13,2013-10-15 16:56:00,
2013-10-15 13:01:00,69.4,58.0,30.10,East,90,1.0,2.0,67,0.00,,,0.00,Wunderground v.1.13,2013-10-15 17:01:00,
2013-10-15 13:06:00,69.4,57.1,30.09,East,90,0.0,2.0,65,0.00,,,0.00,Wunderground v.1.13,2013-10-15 17:06:00,
2013-10-15 13:11:00,69.6,58.2,30.09,East,90,0.0,1.0,67,0.00,,,0.00,Wunderground v.1.13,2013-10-15 17:11:00,
2013-10-15 13:16:00,69.9,57.6,30.09,East,90,0.0,4.0,65,0.00,,,0.00,Wunderground v.1.13,2013-10-15 17:16:00,
2013-10-15 13:21:00,70.1,57.8,30.08,East,90,0.0,2.0,65,0.00,,,0.00,Wunderground v.1.13,2013-10-15 17:21:00,
2013-10-15 13:26:00,70.3,58.0,30.08,ESE,104,5.0,8.0,65,0.00,,,0.00,Wunderground v.1.13,2013-10-15 17:26:00,
2013-10-15 13:31:00,70.5,57.7,30.08,ESE,109,1.0,5.0,64,0.00,,,0.00,Wunderground v.1.13,2013-10-15 17:31:00,
2013-10-15 13:36:00,70.6,57.8,30.08,ESE,111,0.0,3.0,64,0.00,,,0.00,Wunderground v.1.13,2013-10-15 17:36:00,
2013-10-15 13:41:00,70.6,57.8,30.08,SSW,209,1.0,6.0,64,0.00,,,0.00,Wunderground v.1.13,2013-10-15 17:41:00,
2013-10-15 13:46:00,70.4,57.6,30.07,South,183,1.0,6.0,64,0.00,,,0.00,Wunderground v.1.13,2013-10-15 17:46:00,
2013-10-15 13:51:00,70.3,57.5,30.07,South,188,3.0,5.0,64,0.00,,,0.00,Wunderground v.1.13,2013-10-15 17:51:00,
2013-10-15 13:56:00,70.3,57.1,30.07,South,175,0.0,2.0,63,0.00,,,0.00,Wunderground v.1.13,2013-10-15 17:56:00,
2013-10-15 14:01:00,70.4,58.1,30.07,South,173,0.0,7.0,65,0.00,,,0.00,Wunderground v.1.13,2013-10-15 18:01:00,
2013-10-15 14:06:00,70.7,57.9,30.07,South,172,4.0,4.0,64,0.00,,,0.00,Wunderground v.1.13,2013-10-15 18:06:00,
2013-10-15 14:11:00,71.0,57.8,30.06,South,172,1.0,2.0,63,0.00,,,0.00,Wunderground v.1.13,2013-10-15 18:11:00,
2013-10-15 14:16:00,71.1,57.4,30.06,South,172,0.0,1.0,62,0.00,,,0.00,Wunderground v.1.13,2013-10-15 18:16:00,
2013-10-15 14:21:00,71.0,57.3,30.05,SSE,163,4.0,7.0,62,0.00,,,0.00,Wunderground v.1.13,2013-10-15 18:21:00,
2013-10-15 14:26:00,71.0,56.9,30.05,SSE,163,0.0,4.0,61,0.00,,,0.00,Wunderground v.1.13,2013-10-15 18:26:00,
2013-10-15 14:31:00,70.9,57.2,30.05,SSW,200,0.0,6.0,62,0.00,,,0.00,Wunderground v.1.13,2013-10-15 18:31:00,
2013-10-15 14:36:00,70.8,57.1,30.05,SSW,197,0.0,3.0,62,0.00,,,0.00,Wunderground v.1.13,2013-10-15 18:36:00,
2013-10-15 14:41:00,70.7,57.0,30.05,SSW,197,0.0,4.0,62,0.00,,,0.00,Wunderground v.1.13,2013-10-15 18:41:00,
2013-10-15 14:46:00,70.8,57.6,30.05,SSE,161,4.0,8.0,63,0.00,,,0.00,Wunderground v.1.13,2013-10-15 18:46:00,
2013-10-15 14:51:00,70.9,57.7,30.05,SSE,159,2.0,6.0,63,0.00,,,0.00,Wunderground v.1.13,2013-10-15 18:51:00,
2013-10-15 14:56:00,71.1,57.9,30.04,SSE,159,0.0,2.0,63,0.00,,,0.00,Wunderground v.1.13,2013-10-15 18:56:00,
2013-10-15 15:01:00,71.3,57.6,30.04,SSE,159,0.0,2.0,62,0.00,,,0.00,Wunderground v.1.13,2013-10-15 19:01:00,
2013-10-15 15:06:00,71.4,57.7,30.04,SSE,159,0.0,4.0,62,0.00,,,0.00,Wunderground v.1.13,2013-10-15 19:06:00,
2013-10-15 15:11:00,71.5,58.2,30.04,SSE,155,0.0,4.0,63,0.00,,,0.00,Wunderground v.1.13,2013-10-15 19:11:00,
2013-10-15 15:16:00,71.6,58.3,30.04,ESE,107,7.0,9.0,63,0.00,,,0.00,Wunderground v.1.13,2013-10-15 19:16:00,
2013-10-15 15:21:00,71.6,58.3,30.04,South,171,5.0,6.0,63,0.00,,,0.00,Wunderground v.1.13,2013-10-15 19:21:00,
2013-10-15 15:26:00,71.4,58.1,30.03,SE,146,0.0,6.0,63,0.00,,,0.00,Wunderground v.1.13,2013-10-15 19:26:00,
2013-10-15 15:31:00,71.3,58.1,30.03,ESE,108,8.0,8.0,63,0.00,,,0.00,Wunderground v.1.13,2013-10-15 19:31:00,
2013-10-15 15:36:00,71.1,58.3,30.03,SE,146,5.0,11.0,64,0.00,,,0.00,Wunderground v.1.13,2013-10-15 19:36:00,
2013-10-15 15:41:00,71.0,58.2,30.03,ESE,121,0.0,7.0,64,0.00,,,0.00,Wunderground v.1.13,2013-10-15 19:41:00,
2013-10-15 15:46:00,70.8,58.0,30.03,SE,142,0.0,4.0,64,0.00,,,0.00,Wunderground v.1.13,2013-10-15 19:46:00,
2013-10-15 15:51:00,70.6,58.3,30.03,SSE,156,7.0,9.0,65,0.00,,,0.00,Wunderground v.1.13,2013-10-15 19:51:00,
2013-10-15 15:56:00,70.4,58.1,30.02,South,169,1.0,2.0,65,0.00,,,0.00,Wunderground v.1.13,2013-10-15 19:56:00,
2013-10-15 16:01:00,70.3,58.4,30.03,ESE,110,7.0,13.0,66,0.00,,,0.00,Wunderground v.1.13,2013-10-15 20:01:00,
2013-10-15 16:06:00,70.3,58.0,30.03,SE,125,0.0,5.0,65,0.00,,,0.00,Wunderground v.1.13,2013-10-15 20:06:00,
2013-10-15 16:11:00,70.3,58.0,30.02,SE,138,2.0,5.0,65,0.00,,,0.00,Wunderground v.1.13,2013-10-15 20:11:00,
2013-10-15 16:16:00,70.4,58.1,30.02,SE,138,0.0,1.0,65,0.00,,,0.00,Wunderground v.1.13,2013-10-15 20:16:00,
2013-10-15 16:21:00,70.3,58.4,30.02,SE,138,0.0,1.0,66,0.00,,,0.00,Wunderground v.1.13,2013-10-15 20:21:00,
2013-10-15 16:26:00,70.4,58.5,30.02,SE,138,0.0,0.0,66,0.00,,,0.00,Wunderground v.1.13,2013-10-15 20:26:00,
2013-10-15 16:31:00,70.4,58.1,30.02,SE,138,0.0,1.0,65,0.00,,,0.00,Wunderground v.1.13,2013-10-15 20:31:00,
2013-10-15 16:36:00,70.5,58.2,30.02,SE,138,0.0,0.0,65,0.00,,,0.00,Wunderground v.1.13,2013-10-15 20:36:00,
2013-10-15 16:41:00,70.4,58.1,30.02,SE,142,5.0,5.0,65,0.00,,,0.00,Wunderground v.1.13,2013-10-15 20:41:00,
2013-10-15 16:46:00,70.4,58.5,30.02,SE,128,5.0,5.0,66,0.00,,,0.00,Wunderground v.1.13,2013-10-15 20:46:00,
2013-10-15 16:51:00,70.1,57.8,30.02,South,180,0.0,2.0,65,0.00,,,0.00,Wunderground v.1.13,2013-10-15 20:51:00,
2013-10-15 16:56:00,70.0,57.7,30.02,SSE,158,0.0,2.0,65,0.00,,,0.00,Wunderground v.1.13,2013-10-15 20:56:00,
2013-10-15 17:01:00,69.8,57.5,30.02,SW,217,0.0,4.0,65,0.00,,,0.00,Wunderground v.1.13,2013-10-15 21:01:00,
2013-10-15 17:06:00,69.6,57.7,30.02,SW,217,0.0,2.0,66,0.00,,,0.00,Wunderground v.1.13,2013-10-15 21:06:00,
2013-10-15 17:11:00,69.5,57.2,30.02,SW,217,0.0,1.0,65,0.00,,,0.00,Wunderground v.1.13,2013-10-15 21:11:00,
2013-10-15 17:16:00,69.4,57.1,30.02,SW,217,0.0,1.0,65,0.00,,,0.00,Wunderground v.1.13,2013-10-15 21:16:00,
2013-10-15 17:21:00,69.2,57.4,30.02,SW,216,0.0,3.0,66,0.00,,,0.00,Wunderground v.1.13,2013-10-15 21:21:00,
2013-10-15 17:26:00,69.0,57.6,30.02,SW,216,2.0,2.0,67,0.00,,,0.00,Wunderground v.1.13,2013-10-15 21:26:00,
2013-10-15 17:31:00,68.8,57.4,30.02,SW,216,0.0,0.0,67,0.00,,,0.00,Wunderground v.1.13,2013-10-15 21:31:00,
2013-10-15 17:36:00,68.6,57.2,30.01,SW,216,0.0,1.0,67,0.00,,,0.00,Wunderground v.1.13,2013-10-15 21:36:00,
2013-10-15 17:41:00,68.5,57.9,30.01,SW,216,0.0,0.0,69,0.00,,,0.00,Wunderground v.1.13,2013-10-15 21:41:00,
2013-10-15 17:46:00,68.3,56.9,30.01,SW,216,0.0,0.0,67,0.00,,,0.00,Wunderground v.1.13,2013-10-15 21:46:00,
2013-10-15 17:51:00,68.2,57.6,30.01,SW,216,0.0,0.0,69,0.00,,,0.00,Wunderground v.1.13,2013-10-15 21:51:00,
2013-10-15 17:56:00,68.0,57.4,30.01,SW,216,0.0,3.0,69,0.00,,,0.00,Wunderground v.1.13,2013-10-15 21:56:00,
2013-10-15 18:01:00,67.7,57.2,30.01,SW,216,0.0,1.0,69,0.00,,,0.00,Wunderground v.1.13,2013-10-15 22:01:00,
2013-10-15 18:06:00,67.5,58.2,30.01,SW,216,3.0,3.0,72,0.00,,,0.00,Wunderground v.1.13,2013-10-15 22:06:00,
2013-10-15 18:11:00,67.2,58.2,30.01,SW,216,0.0,0.0,73,0.00,,,0.00,Wunderground v.1.13,2013-10-15 22:11:00,
2013-10-15 18:16:00,67.0,58.1,30.01,SW,216,0.0,0.0,73,0.00,,,0.00,Wunderground v.1.13,2013-10-15 22:16:00,
2013-10-15 18:21:00,66.6,57.7,30.01,SW,216,2.0,3.0,73,0.00,,,0.00,Wunderground v.1.13,2013-10-15 22:21:00,
2013-10-15 18:26:00,66.1,57.2,30.01,SW,216,0.0,1.0,73,0.00,,,0.00,Wunderground v.1.13,2013-10-15 22:26:00,
2013-10-15 18:31:00,65.8,57.7,30.01,SW,216,0.0,1.0,75,0.00,,,0.00,Wunderground v.1.13,2013-10-15 22:31:00,
2013-10-15 18:36:00,65.4,57.6,30.01,SW,216,0.0,0.0,76,0.00,,,0.00,Wunderground v.1.13,2013-10-15 22:36:00,
2013-10-15 18:41:00,65.0,57.6,30.01,SW,216,0.0,0.0,77,0.00,,,0.00,Wunderground v.1.13,2013-10-15 22:41:00,
2013-10-15 18:46:00,64.7,57.7,30.01,SW,216,0.0,0.0,78,0.00,,,0.00,Wunderground v.1.13,2013-10-15 22:46:00,
2013-10-15 18:51:00,64.3,57.6,30.00,SW,216,0.0,0.0,79,0.00,,,0.00,Wunderground v.1.13,2013-10-15 22:51:00,
2013-10-15 18:56:00,64.0,57.4,30.01,SW,216,0.0,1.0,79,0.00,,,0.00,Wunderground v.1.13,2013-10-15 22:56:00,
2013-10-15 19:01:00,63.6,57.3,30.01,SW,216,0.0,0.0,80,0.00,,,0.00,Wunderground v.1.13,2013-10-15 23:01:00,
2013-10-15 19:06:00,63.3,57.0,30.00,SW,216,0.0,1.0,80,0.00,,,0.00,Wunderground v.1.13,2013-10-15 23:06:00,
2013-10-15 19:11:00,63.0,57.1,30.00,SW,216,0.0,2.0,81,0.00,,,0.00,Wunderground v.1.13,2013-10-15 23:11:00,
2013-10-15 19:16:00,62.8,56.9,30.01,SW,216,0.0,0.0,81,0.00,,,0.00,Wunderground v.1.13,2013-10-15 23:16:00,
2013-10-15 19:21:00,62.5,56.6,30.01,SW,216,0.0,0.0,81,0.00,,,0.00,Wunderground v.1.13,2013-10-15 23:21:00,
2013-10-15 19:26:00,62.3,56.7,30.01,SW,216,0.0,0.0,82,0.00,,,0.00,Wunderground v.1.13,2013-10-15 23:26:00,
2013-10-15 19:31:00,62.1,56.5,30.00,SW,216,0.0,1.0,82,0.00,,,0.00,Wunderground v.1.13,2013-10-15 23:31:00,
2013-10-15 19:36:00,61.9,56.3,30.00,SW,216,0.0,1.0,82,0.00,,,0.00,Wunderground v.1.13,2013-10-15 23:36:00,
2013-10-15 19:41:00,61.7,56.5,30.01,SW,216,0.0,0.0,83,0.00,,,0.00,Wunderground v.1.13,2013-10-15 23:41:00,
2013-10-15 19:46:00,61.6,56.4,30.00,SW,216,0.0,0.0,83,0.00,,,0.00,Wunderground v.1.13,2013-10-15 23:46:00,
2013-10-15 19:51:00,61.3,56.4,30.00,SW,216,0.0,1.0,84,0.00,,,0.00,Wunderground v.1.13,2013-10-15 23:51:00,
2013-10-15 19:56:00,61.1,56.2,30.00,SW,216,0.0,3.0,84,0.00,,,0.00,Wunderground v.1.13,2013-10-15 23:56:00,
2013-10-15 20:01:00,60.9,56.0,30.00,SW,216,0.0,1.0,84,0.00,,,0.00,Wunderground v.1.13,2013-10-16 00:01:00,
2013-10-15 20:06:00,60.8,55.3,30.01,SSW,197,1.0,4.0,82,0.00,,,0.00,Wunderground v.1.13,2013-10-16 00:06:00,
2013-10-15 20:11:00,61.1,55.2,30.00,South,186,0.0,3.0,81,0.00,,,0.00,Wunderground v.1.13,2013-10-16 00:11:00,
2013-10-15 20:16:00,61.5,55.3,30.00,West,261,5.0,8.0,80,0.00,,,0.00,Wunderground v.1.13,2013-10-16 00:16:00,
2013-10-15 20:21:00,61.9,55.3,30.00,NW,308,0.0,2.0,79,0.00,,,0.00,Wunderground v.1.13,2013-10-16 00:21:00,
2013-10-15 20:26:00,62.2,55.3,30.00,NW,309,0.0,3.0,78,0.00,,,0.00,Wunderground v.1.13,2013-10-16 00:26:00,
2013-10-15 20:31:00,62.3,55.4,30.00,NW,317,0.0,1.0,78,0.00,,,0.00,Wunderground v.1.13,2013-10-16 00:31:00,
2013-10-15 20:36:00,62.3,55.4,29.99,NW,324,0.0,1.0,78,0.00,,,0.00,Wunderground v.1.13,2013-10-16 00:36:00,
2013-10-15 20:41:00,62.3,55.4,30.00,NW,324,0.0,1.0,78,0.00,,,0.00,Wunderground v.1.13,2013-10-16 00:41:00,
2013-10-15 20:46:00,62.1,55.9,30.00,NW,324,0.0,3.0,80,0.00,,,0.00,Wunderground v.1.13,2013-10-16 00:46:00,
2013-10-15 20:51:00,61.9,55.7,30.00,NNW,332,0.0,2.0,80,0.00,,,0.00,Wunderground v.1.13,2013-10-16 00:51:00,
2013-10-15 20:56:00,61.6,55.4,30.00,NNW,332,0.0,0.0,80,0.00,,,0.00,Wunderground v.1.13,2013-10-16 00:56:00,
2013-10-15 21:01:00,61.5,55.6,29.99,NNW,332,0.0,0.0,81,0.00,,,0.00,Wunderground v.1.13,2013-10-16 01:01:00,
2013-10-15 21:06:00,61.3,55.1,29.99,NNW,332,0.0,1.0,80,0.00,,,0.00,Wunderground v.1.13,2013-10-16 01:06:00,
2013-10-15 21:11:00,61.1,54.5,29.99,NNW,332,0.0,4.0,79,0.00,,,0.00,Wunderground v.1.13,2013-10-16 01:11:00,
2013-10-15 21:16:00,61.1,54.5,29.99,NNW,332,0.0,2.0,79,0.00,,,0.00,Wunderground v.1.13,2013-10-16 01:16:00,
2013-10-15 21:21:00,61.1,53.8,29.99,NNW,332,0.0,1.0,77,0.00,,,0.00,Wunderground v.1.13,2013-10-16 01:21:00,
2013-10-15 21:26:00,61.3,53.7,29.99,South,185,0.0,4.0,76,0.00,,,0.00,Wunderground v.1.13,2013-10-16 01:26:00,
2013-10-15 21:31:00,61.5,54.2,29.99,South,186,0.0,1.0,77,0.00,,,0.00,Wunderground v.1.13,2013-10-16 01:31:00,
2013-10-15 21:36:00,61.6,54.3,29.99,South,186,0.0,1.0,77,0.00,,,0.00,Wunderground v.1.13,2013-10-16 01:36:00,
2013-10-15 21:41:00,61.6,54.7,29.99,South,186,0.0,0.0,78,0.00,,,0.00,Wunderground v.1.13,2013-10-16 01:41:00,
2013-10-15 21:46:00,61.5,54.6,29.99,South,188,0.0,0.0,78,0.00,,,0.00,Wunderground v.1.13,2013-10-16 01:46:00,
2013-10-15 21:51:00,61.2,54.3,29.99,South,188,0.0,2.0,78,0.00,,,0.00,Wunderground v.1.13,2013-10-16 01:51:00,
2013-10-15 21:56:00,61.0,54.4,30.00,South,188,0.0,0.0,79,0.00,,,0.00,Wunderground v.1.13,2013-10-16 01:56:00,
2013-10-15 22:01:00,60.9,54.7,30.00,South,188,0.0,0.0,80,0.00,,,0.00,Wunderground v.1.13,2013-10-16 02:01:00,
2013-10-15 22:06:00,60.5,54.3,30.00,South,188,0.0,0.0,80,0.00,,,0.00,Wunderground v.1.13,2013-10-16 02:06:00,
2013-10-15 22:11:00,60.3,54.1,30.00,SSW,207,0.0,4.0,80,0.00,,,0.00,Wunderground v.1.13,2013-10-16 02:11:00,
2013-10-15 22:16:00,60.0,54.2,30.00,SSW,207,1.0,1.0,81,0.00,,,0.00,Wunderground v.1.13,2013-10-16 02:16:00,
2013-10-15 22:21:00,59.8,54.0,30.00,SSW,207,1.0,1.0,81,0.00,,,0.00,Wunderground v.1.13,2013-10-16 02:21:00,
2013-10-15 22:26:00,59.7,54.2,30.00,SSW,207,0.0,0.0,82,0.00,,,0.00,Wunderground v.1.13,2013-10-16 02:26:00,
2013-10-15 22:31:00,59.5,54.0,29.99,SSW,207,0.0,1.0,82,0.00,,,0.00,Wunderground v.1.13,2013-10-16 02:31:00,
2013-10-15 22:36:00,59.3,53.8,30.00,SSW,209,0.0,4.0,82,0.00,,,0.00,Wunderground v.1.13,2013-10-16 02:36:00,
2013-10-15 22:41:00,59.2,53.7,29.99,SSW,209,0.0,0.0,82,0.00,,,0.00,Wunderground v.1.13,2013-10-16 02:41:00,
2013-10-15 22:46:00,59.2,54.0,30.00,SSW,209,0.0,0.0,83,0.00,,,0.00,Wunderground v.1.13,2013-10-16 02:46:00,
2013-10-15 22:51:00,59.1,53.9,30.00,SSW,209,0.0,0.0,83,0.00,,,0.00,Wunderground v.1.13,2013-10-16 02:51:00,
2013-10-15 22:56:00,58.9,54.1,30.00,SSW,209,0.0,0.0,84,0.00,,,0.00,Wunderground v.1.13,2013-10-16 02:56:00,
2013-10-15 23:01:00,58.8,54.0,29.99,SSW,209,0.0,0.0,84,0.00,,,0.00,Wunderground v.1.13,2013-10-16 03:01:00,
2013-10-15 23:06:00,58.6,53.8,29.99,SSW,209,0.0,1.0,84,0.00,,,0.00,Wunderground v.1.13,2013-10-16 03:06:00,
2013-10-15 23:11:00,58.3,53.5,29.99,SSW,209,0.0,1.0,84,0.00,,,0.00,Wunderground v.1.13,2013-10-16 03:11:00,
2013-10-15 23:16:00,58.0,53.5,29.98,SSW,209,0.0,2.0,85,0.00,,,0.00,Wunderground v.1.13,2013-10-16 03:16:00,
2013-10-15 23:21:00,57.8,53.3,29.98,SSW,209,0.0,0.0,85,0.00,,,0.00,Wunderground v.1.13,2013-10-16 03:21:00,
2013-10-15 23:27:00,57.6,53.1,29.99,SSW,209,0.0,1.0,85,0.00,,,0.00,Wunderground v.1.13,2013-10-16 03:27:00,
2013-10-15 23:32:00,57.4,53.2,29.98,SSW,209,0.0,1.0,86,0.00,,,0.00,Wunderground v.1.13,2013-10-16 03:32:00,
2013-10-15 23:37:00,57.2,53.0,29.98,SSW,209,0.0,0.0,86,0.00,,,0.00,Wunderground v.1.13,2013-10-16 03:37:00,
2013-10-15 23:42:00,57.1,53.3,29.98,SSW,209,0.0,3.0,87,0.00,,,0.00,Wunderground v.1.13,2013-10-16 03:42:00,
2013-10-15 23:47:00,56.9,53.1,29.97,SSW,209,0.0,1.0,87,0.00,,,0.00,Wunderground v.1.13,2013-10-16 03:47:00,
2013-10-15 23:52:00,56.8,53.0,29.97,SSW,209,0.0,0.0,87,0.00,,,0.00,Wunderground v.1.13,2013-10-16 03:52:00,
2013-10-15 23:57:00,56.7,52.9,29.97,SSW,209,0.0,0.0,87,0.00,,,0.00,Wunderground v.1.13,2013-10-16 03:57:00,